Alicia, Arkansas
Current Conditions -  °F | °C
As of 6:56 PM on Friday 19 Dec 2014 (Local Time) from KM19 Reporting Station
Overcast Overcast  
Wind Chill: 34°   Ceiling: 6000
Heat Index: 40°   Visibility: 10mi
Dew Point: 36°   Wind: 8mph
Humidity: 86%   Direction: 40°NE
Pressure: 30.26"   Gusts: NA
Location:  35.89°N, 91.08°W
Report Text: KM19 200056Z AUTO 04007KT 10SM OVC060 04/02 A3026 RMK AO2 T00440022 SLP248
Loading
Personal Weather Stations






























Interactive Weather Map New forecast layout! Learn more

10-Day Weather Forecast

Advertisements
Track Severe Weather on mobile